sensor_id;sensor_type;location;lat;lon;timestamp;P1;durP1;ratioP1;P2;durP2;ratioP2
18947;SDS011;9607;51.600;7.558;2023-01-13T00:02:06;1.67;;;0.52;;
18947;SDS011;9607;51.600;7.558;2023-01-13T00:04:35;1.15;;;0.47;;
18947;SDS011;9607;51.600;7.558;2023-01-13T00:07:02;0.90;;;0.50;;
18947;SDS011;9607;51.600;7.558;2023-01-13T00:09:29;0.75;;;0.40;;
18947;SDS011;9607;51.600;7.558;2023-01-13T00:11:55;0.75;;;0.50;;
18947;SDS011;9607;51.600;7.558;2023-01-13T00:14:22;0.70;;;0.32;;
18947;SDS011;9607;51.600;7.558;2023-01-13T00:16:53;1.55;;;0.60;;
18947;SDS011;9607;51.600;7.558;2023-01-13T00:19:20;0.88;;;0.60;;
18947;SDS011;9607;51.600;7.558;2023-01-13T00:21:48;2.40;;;0.47;;
18947;SDS011;9607;51.600;7.558;2023-01-13T00:24:16;1.25;;;0.40;;
18947;SDS011;9607;51.600;7.558;2023-01-13T00:26:42;1.52;;;0.57;;
18947;SDS011;9607;51.600;7.558;2023-01-13T00:29:09;1.65;;;0.70;;
18947;SDS011;9607;51.600;7.558;2023-01-13T00:31:36;2.10;;;0.60;;
18947;SDS011;9607;51.600;7.558;2023-01-13T00:34:03;2.20;;;0.45;;
18947;SDS011;9607;51.600;7.558;2023-01-13T00:36:30;1.92;;;0.80;;
18947;SDS011;9607;51.600;7.558;2023-01-13T00:38:58;1.75;;;0.90;;
18947;SDS011;9607;51.600;7.558;2023-01-13T00:41:25;3.30;;;1.02;;
18947;SDS011;9607;51.600;7.558;2023-01-13T00:43:53;2.67;;;1.05;;
18947;SDS011;9607;51.600;7.558;2023-01-13T00:46:20;1.50;;;1.10;;
18947;SDS011;9607;51.600;7.558;2023-01-13T00:48:49;1.48;;;1.15;;
18947;SDS011;9607;51.600;7.558;2023-01-13T00:51:17;1.33;;;1.10;;
18947;SDS011;9607;51.600;7.558;2023-01-13T00:53:46;2.15;;;1.35;;
18947;SDS011;9607;51.600;7.558;2023-01-13T00:56:17;2.20;;;0.90;;
18947;SDS011;9607;51.600;7.558;2023-01-13T00:58:46;3.28;;;1.13;;
18947;SDS011;9607;51.600;7.558;2023-01-13T01:01:14;2.75;;;1.05;;
18947;SDS011;9607;51.600;7.558;2023-01-13T01:03:42;2.08;;;1.02;;
18947;SDS011;9607;51.600;7.558;2023-01-13T01:06:10;2.78;;;1.08;;
18947;SDS011;9607;51.600;7.558;2023-01-13T01:08:39;2.78;;;1.27;;
18947;SDS011;9607;51.600;7.558;2023-01-13T01:11:07;2.47;;;1.13;;
18947;SDS011;9607;51.600;7.558;2023-01-13T01:13:36;5.03;;;1.15;;
18947;SDS011;9607;51.600;7.558;2023-01-13T01:16:06;5.53;;;1.23;;
18947;SDS011;9607;51.600;7.558;2023-01-13T01:18:34;4.30;;;1.48;;
18947;SDS011;9607;51.600;7.558;2023-01-13T01:21:03;5.15;;;1.52;;
18947;SDS011;9607;51.600;7.558;2023-01-13T01:23:30;5.47;;;1.20;;
18947;SDS011;9607;51.600;7.558;2023-01-13T01:25:58;6.85;;;1.40;;
18947;SDS011;9607;51.600;7.558;2023-01-13T01:28:26;5.35;;;1.65;;
18947;SDS011;9607;51.600;7.558;2023-01-13T01:30:54;4.18;;;1.20;;
18947;SDS011;9607;51.600;7.558;2023-01-13T01:33:22;7.07;;;1.30;;
18947;SDS011;9607;51.600;7.558;2023-01-13T01:35:49;6.35;;;1.33;;
18947;SDS011;9607;51.600;7.558;2023-01-13T01:38:16;10.82;;;1.98;;
18947;SDS011;9607;51.600;7.558;2023-01-13T01:40:42;4.15;;;1.17;;
18947;SDS011;9607;51.600;7.558;2023-01-13T01:43:11;6.38;;;1.55;;
18947;SDS011;9607;51.600;7.558;2023-01-13T01:45:59;10.13;;;1.70;;
18947;SDS011;9607;51.600;7.558;2023-01-13T01:48:27;6.15;;;1.67;;
18947;SDS011;9607;51.600;7.558;2023-01-13T01:50:58;6.43;;;1.73;;
18947;SDS011;9607;51.600;7.558;2023-01-13T01:53:25;4.95;;;1.15;;
18947;SDS011;9607;51.600;7.558;2023-01-13T01:55:54;6.47;;;1.33;;
18947;SDS011;9607;51.600;7.558;2023-01-13T01:58:24;9.85;;;1.92;;
18947;SDS011;9607;51.600;7.558;2023-01-13T02:00:54;6.03;;;1.40;;
18947;SDS011;9607;51.600;7.558;2023-01-13T02:03:22;9.18;;;1.70;;
18947;SDS011;9607;51.600;7.558;2023-01-13T02:05:49;6.72;;;1.50;;
18947;SDS011;9607;51.600;7.558;2023-01-13T02:08:16;6.78;;;1.70;;
18947;SDS011;9607;51.600;7.558;2023-01-13T02:10:45;10.23;;;1.70;;
18947;SDS011;9607;51.600;7.558;2023-01-13T02:13:15;8.13;;;2.38;;
18947;SDS011;9607;51.600;7.558;2023-01-13T02:15:43;12.02;;;1.98;;
18947;SDS011;9607;51.600;7.558;2023-01-13T02:18:23;5.97;;;1.85;;
18947;SDS011;9607;51.600;7.558;2023-01-13T02:21:08;7.40;;;1.63;;
18947;SDS011;9607;51.600;7.558;2023-01-13T02:30:08;7.88;;;1.88;;
18947;SDS011;9607;51.600;7.558;2023-01-13T02:33:00;12.25;;;2.47;;
18947;SDS011;9607;51.600;7.558;2023-01-13T02:35:36;10.55;;;1.85;;
18947;SDS011;9607;51.600;7.558;2023-01-13T02:38:10;9.13;;;2.20;;
18947;SDS011;9607;51.600;7.558;2023-01-13T02:40:42;13.48;;;2.33;;
18947;SDS011;9607;51.600;7.558;2023-01-13T02:43:15;10.25;;;2.10;;
18947;SDS011;9607;51.600;7.558;2023-01-13T02:46:06;18.42;;;3.28;;
18947;SDS011;9607;51.600;7.558;2023-01-13T02:48:36;15.38;;;2.97;;
18947;SDS011;9607;51.600;7.558;2023-01-13T02:51:06;11.57;;;2.28;;
18947;SDS011;9607;51.600;7.558;2023-01-13T02:53:38;10.48;;;2.38;;
18947;SDS011;9607;51.600;7.558;2023-01-13T02:56:10;13.85;;;3.20;;
18947;SDS011;9607;51.600;7.558;2023-01-13T02:58:40;14.68;;;2.58;;
18947;SDS011;9607;51.600;7.558;2023-01-13T03:01:10;17.05;;;2.33;;
18947;SDS011;9607;51.600;7.558;2023-01-13T03:03:36;14.90;;;3.38;;
18947;SDS011;9607;51.600;7.558;2023-01-13T03:06:08;16.40;;;4.30;;
18947;SDS011;9607;51.600;7.558;2023-01-13T03:08:47;11.00;;;2.78;;
18947;SDS011;9607;51.600;7.558;2023-01-13T03:11:18;10.30;;;2.40;;
18947;SDS011;9607;51.600;7.558;2023-01-13T03:14:06;15.45;;;2.47;;
18947;SDS011;9607;51.600;7.558;2023-01-13T03:16:47;12.55;;;2.33;;
18947;SDS011;9607;51.600;7.558;2023-01-13T03:19:29;13.93;;;2.70;;
18947;SDS011;9607;51.600;7.558;2023-01-13T03:22:04;13.93;;;2.83;;
18947;SDS011;9607;51.600;7.558;2023-01-13T03:24:41;14.18;;;3.17;;
18947;SDS011;9607;51.600;7.558;2023-01-13T03:27:13;17.73;;;2.40;;
18947;SDS011;9607;51.600;7.558;2023-01-13T03:29:47;11.05;;;2.40;;
18947;SDS011;9607;51.600;7.558;2023-01-13T03:32:21;13.13;;;2.78;;
18947;SDS011;9607;51.600;7.558;2023-01-13T03:34:51;9.38;;;1.67;;
18947;SDS011;9607;51.600;7.558;2023-01-13T03:37:21;15.73;;;2.40;;
18947;SDS011;9607;51.600;7.558;2023-01-13T03:39:53;8.98;;;1.83;;
18947;SDS011;9607;51.600;7.558;2023-01-13T03:42:25;6.35;;;2.00;;
18947;SDS011;9607;51.600;7.558;2023-01-13T03:44:56;9.75;;;2.22;;
18947;SDS011;9607;51.600;7.558;2023-01-13T03:47:28;7.78;;;2.13;;
18947;SDS011;9607;51.600;7.558;2023-01-13T03:50:00;12.07;;;1.75;;
18947;SDS011;9607;51.600;7.558;2023-01-13T03:52:31;7.97;;;2.28;;
18947;SDS011;9607;51.600;7.558;2023-01-13T03:55:00;7.63;;;1.80;;
18947;SDS011;9607;51.600;7.558;2023-01-13T03:57:33;8.35;;;1.65;;
18947;SDS011;9607;51.600;7.558;2023-01-13T04:00:03;9.48;;;1.50;;
18947;SDS011;9607;51.600;7.558;2023-01-13T04:02:37;7.78;;;2.13;;
18947;SDS011;9607;51.600;7.558;2023-01-13T04:05:10;10.23;;;1.77;;
18947;SDS011;9607;51.600;7.558;2023-01-13T04:07:42;10.50;;;1.95;;
18947;SDS011;9607;51.600;7.558;2023-01-13T04:10:25;12.57;;;2.03;;
18947;SDS011;9607;51.600;7.558;2023-01-13T04:12:55;7.97;;;2.03;;
18947;SDS011;9607;51.600;7.558;2023-01-13T04:15:26;12.13;;;2.55;;
18947;SDS011;9607;51.600;7.558;2023-01-13T04:18:02;8.93;;;2.38;;
18947;SDS011;9607;51.600;7.558;2023-01-13T04:20:39;8.50;;;2.03;;
18947;SDS011;9607;51.600;7.558;2023-01-13T04:23:07;10.93;;;2.50;;
18947;SDS011;9607;51.600;7.558;2023-01-13T04:25:35;13.77;;;2.10;;
18947;SDS011;9607;51.600;7.558;2023-01-13T04:28:02;9.55;;;2.20;;
18947;SDS011;9607;51.600;7.558;2023-01-13T04:30:29;8.48;;;1.90;;
18947;SDS011;9607;51.600;7.558;2023-01-13T04:32:56;7.82;;;1.90;;
18947;SDS011;9607;51.600;7.558;2023-01-13T04:35:25;13.23;;;1.85;;
18947;SDS011;9607;51.600;7.558;2023-01-13T04:37:52;13.55;;;2.15;;
18947;SDS011;9607;51.600;7.558;2023-01-13T04:40:19;11.52;;;1.98;;
18947;SDS011;9607;51.600;7.558;2023-01-13T04:42:46;9.13;;;1.58;;
18947;SDS011;9607;51.600;7.558;2023-01-13T04:45:13;10.18;;;2.03;;
18947;SDS011;9607;51.600;7.558;2023-01-13T04:47:40;12.85;;;2.40;;
18947;SDS011;9607;51.600;7.558;2023-01-13T04:50:08;16.80;;;2.85;;
18947;SDS011;9607;51.600;7.558;2023-01-13T04:52:37;6.78;;;2.03;;
18947;SDS011;9607;51.600;7.558;2023-01-13T04:55:04;11.32;;;1.92;;
18947;SDS011;9607;51.600;7.558;2023-01-13T04:57:32;8.13;;;1.90;;
18947;SDS011;9607;51.600;7.558;2023-01-13T04:59:59;9.10;;;1.85;;
18947;SDS011;9607;51.600;7.558;2023-01-13T05:02:26;8.38;;;1.95;;
18947;SDS011;9607;51.600;7.558;2023-01-13T05:04:53;8.70;;;2.45;;
18947;SDS011;9607;51.600;7.558;2023-01-13T05:07:19;11.55;;;2.75;;
18947;SDS011;9607;51.600;7.558;2023-01-13T05:09:47;9.63;;;1.65;;
18947;SDS011;9607;51.600;7.558;2023-01-13T05:12:14;12.95;;;1.92;;
18947;SDS011;9607;51.600;7.558;2023-01-13T05:14:58;14.02;;;2.33;;
18947;SDS011;9607;51.600;7.558;2023-01-13T05:17:43;9.63;;;1.92;;
18947;SDS011;9607;51.600;7.558;2023-01-13T05:20:10;9.23;;;2.55;;
18947;SDS011;9607;51.600;7.558;2023-01-13T05:22:38;15.85;;;2.33;;
18947;SDS011;9607;51.600;7.558;2023-01-13T05:25:20;12.10;;;2.15;;
18947;SDS011;9607;51.600;7.558;2023-01-13T05:27:47;9.70;;;2.53;;
18947;SDS011;9607;51.600;7.558;2023-01-13T05:30:14;16.63;;;2.80;;
18947;SDS011;9607;51.600;7.558;2023-01-13T05:32:41;10.15;;;2.17;;
18947;SDS011;9607;51.600;7.558;2023-01-13T05:35:09;10.55;;;2.35;;
18947;SDS011;9607;51.600;7.558;2023-01-13T05:37:36;14.68;;;3.20;;
18947;SDS011;9607;51.600;7.558;2023-01-13T05:40:03;14.63;;;2.63;;
18947;SDS011;9607;51.600;7.558;2023-01-13T05:43:00;18.77;;;2.58;;
18947;SDS011;9607;51.600;7.558;2023-01-13T05:45:46;13.98;;;2.65;;
18947;SDS011;9607;51.600;7.558;2023-01-13T05:48:15;12.82;;;2.72;;
18947;SDS011;9607;51.600;7.558;2023-01-13T05:50:43;15.13;;;2.55;;
18947;SDS011;9607;51.600;7.558;2023-01-13T05:53:10;17.80;;;3.90;;
18947;SDS011;9607;51.600;7.558;2023-01-13T05:55:37;11.13;;;2.90;;
18947;SDS011;9607;51.600;7.558;2023-01-13T05:58:07;12.02;;;2.53;;
18947;SDS011;9607;51.600;7.558;2023-01-13T06:00:34;17.13;;;3.53;;
18947;SDS011;9607;51.600;7.558;2023-01-13T06:03:01;13.50;;;2.42;;
18947;SDS011;9607;51.600;7.558;2023-01-13T06:05:29;10.15;;;2.60;;
18947;SDS011;9607;51.600;7.558;2023-01-13T06:07:56;14.95;;;2.53;;
18947;SDS011;9607;51.600;7.558;2023-01-13T06:10:27;19.83;;;3.10;;
18947;SDS011;9607;51.600;7.558;2023-01-13T06:12:55;15.32;;;3.17;;
18947;SDS011;9607;51.600;7.558;2023-01-13T06:15:23;13.93;;;2.72;;
18947;SDS011;9607;51.600;7.558;2023-01-13T06:17:50;12.48;;;2.10;;
18947;SDS011;9607;51.600;7.558;2023-01-13T06:20:18;15.20;;;2.30;;
18947;SDS011;9607;51.600;7.558;2023-01-13T06:22:48;15.68;;;2.35;;
18947;SDS011;9607;51.600;7.558;2023-01-13T06:25:19;12.30;;;2.20;;
18947;SDS011;9607;51.600;7.558;2023-01-13T06:27:49;13.38;;;2.20;;
18947;SDS011;9607;51.600;7.558;2023-01-13T06:30:17;13.93;;;3.08;;
18947;SDS011;9607;51.600;7.558;2023-01-13T06:32:46;12.60;;;2.80;;
18947;SDS011;9607;51.600;7.558;2023-01-13T06:35:17;14.93;;;2.50;;
18947;SDS011;9607;51.600;7.558;2023-01-13T06:37:48;15.55;;;2.85;;
18947;SDS011;9607;51.600;7.558;2023-01-13T06:40:17;11.77;;;2.50;;
18947;SDS011;9607;51.600;7.558;2023-01-13T06:42:44;18.30;;;3.20;;
18947;SDS011;9607;51.600;7.558;2023-01-13T06:45:29;12.38;;;3.45;;
18947;SDS011;9607;51.600;7.558;2023-01-13T06:47:57;13.68;;;2.47;;
18947;SDS011;9607;51.600;7.558;2023-01-13T06:50:25;10.98;;;2.70;;
18947;SDS011;9607;51.600;7.558;2023-01-13T06:52:52;10.02;;;2.53;;
18947;SDS011;9607;51.600;7.558;2023-01-13T06:55:19;14.10;;;2.35;;
18947;SDS011;9607;51.600;7.558;2023-01-13T06:57:47;17.00;;;2.80;;
18947;SDS011;9607;51.600;7.558;2023-01-13T07:00:15;12.13;;;2.28;;
18947;SDS011;9607;51.600;7.558;2023-01-13T07:02:42;14.25;;;3.35;;
18947;SDS011;9607;51.600;7.558;2023-01-13T07:05:10;15.70;;;3.90;;
18947;SDS011;9607;51.600;7.558;2023-01-13T07:07:37;14.50;;;2.40;;
18947;SDS011;9607;51.600;7.558;2023-01-13T07:10:05;16.08;;;3.20;;
18947;SDS011;9607;51.600;7.558;2023-01-13T07:12:34;17.02;;;2.55;;
18947;SDS011;9607;51.600;7.558;2023-01-13T07:15:22;16.73;;;3.70;;
18947;SDS011;9607;51.600;7.558;2023-01-13T07:17:48;15.07;;;2.30;;
18947;SDS011;9607;51.600;7.558;2023-01-13T07:20:17;17.83;;;2.92;;
18947;SDS011;9607;51.600;7.558;2023-01-13T07:22:44;8.60;;;2.40;;
18947;SDS011;9607;51.600;7.558;2023-01-13T07:25:11;17.27;;;3.47;;
18947;SDS011;9607;51.600;7.558;2023-01-13T07:27:38;13.70;;;2.70;;
18947;SDS011;9607;51.600;7.558;2023-01-13T07:30:05;11.73;;;2.53;;
18947;SDS011;9607;51.600;7.558;2023-01-13T07:32:33;10.38;;;2.22;;
18947;SDS011;9607;51.600;7.558;2023-01-13T07:35:00;14.48;;;2.65;;
18947;SDS011;9607;51.600;7.558;2023-01-13T07:37:31;13.05;;;2.15;;
18947;SDS011;9607;51.600;7.558;2023-01-13T07:39:58;11.65;;;3.00;;
18947;SDS011;9607;51.600;7.558;2023-01-13T07:42:25;9.30;;;2.15;;
18947;SDS011;9607;51.600;7.558;2023-01-13T07:45:10;12.50;;;2.40;;
18947;SDS011;9607;51.600;7.558;2023-01-13T07:47:37;12.68;;;2.90;;
18947;SDS011;9607;51.600;7.558;2023-01-13T07:50:04;16.83;;;2.65;;
18947;SDS011;9607;51.600;7.558;2023-01-13T07:52:33;10.82;;;2.50;;
18947;SDS011;9607;51.600;7.558;2023-01-13T07:55:01;13.43;;;2.70;;
18947;SDS011;9607;51.600;7.558;2023-01-13T07:57:28;14.60;;;2.60;;
18947;SDS011;9607;51.600;7.558;2023-01-13T07:59:55;8.98;;;2.13;;
18947;SDS011;9607;51.600;7.558;2023-01-13T08:02:23;14.73;;;2.50;;
18947;SDS011;9607;51.600;7.558;2023-01-13T08:04:49;10.68;;;2.47;;
18947;SDS011;9607;51.600;7.558;2023-01-13T08:07:16;10.48;;;2.47;;
18947;SDS011;9607;51.600;7.558;2023-01-13T08:09:45;12.38;;;2.70;;
18947;SDS011;9607;51.600;7.558;2023-01-13T08:12:12;16.52;;;2.42;;
18947;SDS011;9607;51.600;7.558;2023-01-13T08:14:57;13.85;;;2.47;;
18947;SDS011;9607;51.600;7.558;2023-01-13T08:17:23;12.73;;;2.40;;
18947;SDS011;9607;51.600;7.558;2023-01-13T08:19:50;11.25;;;2.17;;
18947;SDS011;9607;51.600;7.558;2023-01-13T08:22:17;10.70;;;2.13;;
18947;SDS011;9607;51.600;7.558;2023-01-13T08:24:45;12.07;;;2.30;;
18947;SDS011;9607;51.600;7.558;2023-01-13T08:27:12;13.75;;;2.58;;
18947;SDS011;9607;51.600;7.558;2023-01-13T08:29:39;10.23;;;2.67;;
18947;SDS011;9607;51.600;7.558;2023-01-13T08:32:06;9.70;;;2.78;;
18947;SDS011;9607;51.600;7.558;2023-01-13T08:34:34;14.77;;;2.60;;
18947;SDS011;9607;51.600;7.558;2023-01-13T08:37:01;12.80;;;2.80;;
18947;SDS011;9607;51.600;7.558;2023-01-13T08:39:28;12.77;;;2.95;;
18947;SDS011;9607;51.600;7.558;2023-01-13T08:41:57;12.35;;;2.22;;
18947;SDS011;9607;51.600;7.558;2023-01-13T08:44:24;16.52;;;3.40;;
18947;SDS011;9607;51.600;7.558;2023-01-13T08:46:52;11.00;;;2.25;;
18947;SDS011;9607;51.600;7.558;2023-01-13T08:49:20;9.68;;;2.58;;
18947;SDS011;9607;51.600;7.558;2023-01-13T08:51:48;9.90;;;2.10;;
18947;SDS011;9607;51.600;7.558;2023-01-13T08:54:16;13.18;;;2.45;;
18947;SDS011;9607;51.600;7.558;2023-01-13T08:56:43;13.68;;;2.38;;
18947;SDS011;9607;51.600;7.558;2023-01-13T08:59:12;10.20;;;2.13;;
18947;SDS011;9607;51.600;7.558;2023-01-13T09:01:40;12.25;;;2.47;;
18947;SDS011;9607;51.600;7.558;2023-01-13T09:04:11;10.43;;;3.35;;
18947;SDS011;9607;51.600;7.558;2023-01-13T09:06:42;13.27;;;2.65;;
18947;SDS011;9607;51.600;7.558;2023-01-13T09:09:09;16.02;;;2.65;;
18947;SDS011;9607;51.600;7.558;2023-01-13T09:11:38;13.45;;;2.38;;
18947;SDS011;9607;51.600;7.558;2023-01-13T09:14:29;10.00;;;2.58;;
18947;SDS011;9607;51.600;7.558;2023-01-13T09:17:00;12.88;;;2.88;;
18947;SDS011;9607;51.600;7.558;2023-01-13T09:19:28;12.23;;;2.85;;
18947;SDS011;9607;51.600;7.558;2023-01-13T09:21:55;13.55;;;2.70;;
18947;SDS011;9607;51.600;7.558;2023-01-13T09:24:22;12.23;;;2.40;;
18947;SDS011;9607;51.600;7.558;2023-01-13T09:26:50;14.05;;;2.05;;
18947;SDS011;9607;51.600;7.558;2023-01-13T09:29:17;14.80;;;2.67;;
18947;SDS011;9607;51.600;7.558;2023-01-13T09:31:45;10.88;;;2.50;;
18947;SDS011;9607;51.600;7.558;2023-01-13T09:34:13;16.38;;;3.40;;
18947;SDS011;9607;51.600;7.558;2023-01-13T09:37:14;11.30;;;2.92;;
18947;SDS011;9607;51.600;7.558;2023-01-13T09:39:41;11.73;;;2.85;;
18947;SDS011;9607;51.600;7.558;2023-01-13T09:42:11;14.15;;;2.95;;
18947;SDS011;9607;51.600;7.558;2023-01-13T09:45:01;12.43;;;3.03;;
18947;SDS011;9607;51.600;7.558;2023-01-13T09:47:34;12.00;;;2.50;;
18947;SDS011;9607;51.600;7.558;2023-01-13T09:50:07;10.38;;;2.33;;
18947;SDS011;9607;51.600;7.558;2023-01-13T09:52:45;8.75;;;2.35;;
18947;SDS011;9607;51.600;7.558;2023-01-13T09:55:13;13.70;;;2.38;;
18947;SDS011;9607;51.600;7.558;2023-01-13T09:57:42;13.13;;;2.88;;
18947;SDS011;9607;51.600;7.558;2023-01-13T10:00:10;15.30;;;3.00;;
18947;SDS011;9607;51.600;7.558;2023-01-13T10:02:45;13.90;;;3.05;;
18947;SDS011;9607;51.600;7.558;2023-01-13T10:05:25;11.35;;;2.58;;
18947;SDS011;9607;51.600;7.558;2023-01-13T10:08:01;13.00;;;3.10;;
18947;SDS011;9607;51.600;7.558;2023-01-13T10:10:35;15.82;;;2.90;;
18947;SDS011;9607;51.600;7.558;2023-01-13T10:13:10;14.75;;;2.95;;
18947;SDS011;9607;51.600;7.558;2023-01-13T10:15:42;17.83;;;3.05;;
18947;SDS011;9607;51.600;7.558;2023-01-13T10:18:20;12.95;;;2.80;;
18947;SDS011;9607;51.600;7.558;2023-01-13T10:20:55;15.48;;;3.10;;
18947;SDS011;9607;51.600;7.558;2023-01-13T10:23:40;11.90;;;2.72;;
18947;SDS011;9607;51.600;7.558;2023-01-13T10:26:22;21.98;;;3.28;;
18947;SDS011;9607;51.600;7.558;2023-01-13T10:29:01;15.93;;;3.60;;
18947;SDS011;9607;51.600;7.558;2023-01-13T10:31:28;14.65;;;3.38;;
18947;SDS011;9607;51.600;7.558;2023-01-13T10:33:59;18.23;;;3.20;;
18947;SDS011;9607;51.600;7.558;2023-01-13T10:36:28;10.85;;;2.85;;
18947;SDS011;9607;51.600;7.558;2023-01-13T10:38:56;14.68;;;3.55;;
18947;SDS011;9607;51.600;7.558;2023-01-13T10:41:33;18.52;;;3.28;;
18947;SDS011;9607;51.600;7.558;2023-01-13T10:44:02;14.57;;;3.05;;
18947;SDS011;9607;51.600;7.558;2023-01-13T10:46:31;12.70;;;3.50;;
18947;SDS011;9607;51.600;7.558;2023-01-13T10:49:01;15.45;;;2.78;;
18947;SDS011;9607;51.600;7.558;2023-01-13T10:51:44;12.85;;;2.70;;
18947;SDS011;9607;51.600;7.558;2023-01-13T10:54:15;13.48;;;2.70;;
18947;SDS011;9607;51.600;7.558;2023-01-13T10:56:46;14.68;;;2.90;;
18947;SDS011;9607;51.600;7.558;2023-01-13T10:59:15;16.30;;;3.47;;
18947;SDS011;9607;51.600;7.558;2023-01-13T11:01:52;16.77;;;3.45;;
18947;SDS011;9607;51.600;7.558;2023-01-13T11:04:30;19.05;;;3.50;;
18947;SDS011;9607;51.600;7.558;2023-01-13T11:07:00;11.27;;;2.78;;
18947;SDS011;9607;51.600;7.558;2023-01-13T11:09:29;9.80;;;2.75;;
18947;SDS011;9607;51.600;7.558;2023-01-13T11:11:57;14.63;;;3.55;;
18947;SDS011;9607;51.600;7.558;2023-01-13T11:14:28;18.75;;;3.58;;
18947;SDS011;9607;51.600;7.558;2023-01-13T11:19:56;10.15;;;3.03;;
18947;SDS011;9607;51.600;7.558;2023-01-13T11:22:29;15.65;;;3.30;;
18947;SDS011;9607;51.600;7.558;2023-01-13T11:25:00;12.80;;;2.88;;
18947;SDS011;9607;51.600;7.558;2023-01-13T11:27:34;13.43;;;2.78;;
18947;SDS011;9607;51.600;7.558;2023-01-13T11:30:08;12.48;;;3.15;;
18947;SDS011;9607;51.600;7.558;2023-01-13T11:32:47;18.13;;;3.33;;
18947;SDS011;9607;51.600;7.558;2023-01-13T11:35:27;12.45;;;2.70;;
18947;SDS011;9607;51.600;7.558;2023-01-13T11:37:57;13.60;;;3.40;;
18947;SDS011;9607;51.600;7.558;2023-01-13T11:40:31;17.73;;;3.42;;
18947;SDS011;9607;51.600;7.558;2023-01-13T11:43:03;18.35;;;3.22;;
18947;SDS011;9607;51.600;7.558;2023-01-13T11:45:37;9.77;;;2.22;;
18947;SDS011;9607;51.600;7.558;2023-01-13T11:48:11;10.55;;;2.67;;
18947;SDS011;9607;51.600;7.558;2023-01-13T11:50:42;9.65;;;2.53;;
18947;SDS011;9607;51.600;7.558;2023-01-13T11:53:22;12.45;;;3.03;;
18947;SDS011;9607;51.600;7.558;2023-01-13T11:56:01;12.15;;;2.75;;
18947;SDS011;9607;51.600;7.558;2023-01-13T11:58:45;13.00;;;3.20;;
18947;SDS011;9607;51.600;7.558;2023-01-13T12:01:32;13.20;;;2.92;;
18947;SDS011;9607;51.600;7.558;2023-01-13T12:04:20;10.30;;;2.72;;
18947;SDS011;9607;51.600;7.558;2023-01-13T12:06:55;20.27;;;4.20;;
18947;SDS011;9607;51.600;7.558;2023-01-13T12:09:36;9.73;;;2.85;;
18947;SDS011;9607;51.600;7.558;2023-01-13T12:12:15;13.88;;;3.22;;
18947;SDS011;9607;51.600;7.558;2023-01-13T12:18:05;8.55;;;2.72;;
18947;SDS011;9607;51.600;7.558;2023-01-13T12:20:42;14.88;;;3.65;;
18947;SDS011;9607;51.600;7.558;2023-01-13T12:23:25;14.77;;;3.17;;
18947;SDS011;9607;51.600;7.558;2023-01-13T12:25:57;11.63;;;3.00;;
18947;SDS011;9607;51.600;7.558;2023-01-13T12:28:31;9.05;;;2.38;;
18947;SDS011;9607;51.600;7.558;2023-01-13T12:31:08;17.83;;;3.45;;
18947;SDS011;9607;51.600;7.558;2023-01-13T12:33:40;13.80;;;4.00;;
18947;SDS011;9607;51.600;7.558;2023-01-13T12:36:13;10.88;;;3.47;;
18947;SDS011;9607;51.600;7.558;2023-01-13T12:38:48;18.02;;;3.47;;
18947;SDS011;9607;51.600;7.558;2023-01-13T12:41:23;10.48;;;3.17;;
18947;SDS011;9607;51.600;7.558;2023-01-13T12:43:58;16.98;;;3.13;;
18947;SDS011;9607;51.600;7.558;2023-01-13T12:46:46;10.40;;;2.35;;
18947;SDS011;9607;51.600;7.558;2023-01-13T12:49:21;6.45;;;1.95;;
18947;SDS011;9607;51.600;7.558;2023-01-13T12:52:03;8.80;;;2.22;;
18947;SDS011;9607;51.600;7.558;2023-01-13T12:57:34;11.27;;;2.65;;
18947;SDS011;9607;51.600;7.558;2023-01-13T13:00:16;9.93;;;2.67;;
18947;SDS011;9607;51.600;7.558;2023-01-13T13:03:13;26.70;;;4.63;;
18947;SDS011;9607;51.600;7.558;2023-01-13T13:05:53;17.52;;;3.70;;
18947;SDS011;9607;51.600;7.558;2023-01-13T13:08:42;15.30;;;3.63;;
18947;SDS011;9607;51.600;7.558;2023-01-13T13:11:19;12.65;;;3.45;;
18947;SDS011;9607;51.600;7.558;2023-01-13T13:17:38;16.73;;;3.30;;
18947;SDS011;9607;51.600;7.558;2023-01-13T13:23:27;14.98;;;3.17;;
18947;SDS011;9607;51.600;7.558;2023-01-13T13:26:27;16.70;;;3.15;;
18947;SDS011;9607;51.600;7.558;2023-01-13T13:35:05;14.90;;;3.50;;
18947;SDS011;9607;51.600;7.558;2023-01-13T13:37:49;16.23;;;3.65;;
18947;SDS011;9607;51.600;7.558;2023-01-13T13:40:41;14.18;;;3.38;;
18947;SDS011;9607;51.600;7.558;2023-01-13T13:43:30;14.63;;;3.85;;
18947;SDS011;9607;51.600;7.558;2023-01-13T13:46:22;11.93;;;3.08;;
18947;SDS011;9607;51.600;7.558;2023-01-13T13:49:08;14.70;;;4.03;;
18947;SDS011;9607;51.600;7.558;2023-01-13T13:51:36;12.60;;;3.00;;
18947;SDS011;9607;51.600;7.558;2023-01-13T13:54:09;15.07;;;2.83;;
18947;SDS011;9607;51.600;7.558;2023-01-13T13:56:40;15.38;;;4.13;;
18947;SDS011;9607;51.600;7.558;2023-01-13T13:59:11;12.93;;;3.58;;
18947;SDS011;9607;51.600;7.558;2023-01-13T14:01:42;13.50;;;2.80;;
18947;SDS011;9607;51.600;7.558;2023-01-13T14:04:12;10.73;;;2.97;;
18947;SDS011;9607;51.600;7.558;2023-01-13T14:06:49;11.00;;;2.70;;
18947;SDS011;9607;51.600;7.558;2023-01-13T14:09:21;16.98;;;3.33;;
18947;SDS011;9607;51.600;7.558;2023-01-13T14:11:53;13.40;;;3.50;;
18947;SDS011;9607;51.600;7.558;2023-01-13T14:14:24;14.35;;;3.95;;
18947;SDS011;9607;51.600;7.558;2023-01-13T14:16:51;9.30;;;2.75;;
18947;SDS011;9607;51.600;7.558;2023-01-13T14:19:24;16.13;;;3.45;;
18947;SDS011;9607;51.600;7.558;2023-01-13T14:21:54;12.38;;;3.17;;
18947;SDS011;9607;51.600;7.558;2023-01-13T14:24:22;15.20;;;3.40;;
18947;SDS011;9607;51.600;7.558;2023-01-13T14:26:49;13.98;;;3.42;;
18947;SDS011;9607;51.600;7.558;2023-01-13T14:29:17;17.50;;;3.83;;
18947;SDS011;9607;51.600;7.558;2023-01-13T14:31:48;18.63;;;4.10;;
18947;SDS011;9607;51.600;7.558;2023-01-13T14:34:16;11.45;;;3.22;;
18947;SDS011;9607;51.600;7.558;2023-01-13T14:36:43;18.23;;;3.60;;
18947;SDS011;9607;51.600;7.558;2023-01-13T14:39:25;17.50;;;3.58;;
18947;SDS011;9607;51.600;7.558;2023-01-13T14:41:59;14.90;;;4.28;;
18947;SDS011;9607;51.600;7.558;2023-01-13T14:44:28;15.45;;;3.92;;
18947;SDS011;9607;51.600;7.558;2023-01-13T14:47:00;15.68;;;4.35;;
18947;SDS011;9607;51.600;7.558;2023-01-13T14:49:31;19.13;;;4.57;;
18947;SDS011;9607;51.600;7.558;2023-01-13T14:52:04;15.63;;;4.32;;
18947;SDS011;9607;51.600;7.558;2023-01-13T14:54:46;15.82;;;5.07;;
18947;SDS011;9607;51.600;7.558;2023-01-13T14:57:17;13.20;;;3.72;;
18947;SDS011;9607;51.600;7.558;2023-01-13T14:59:54;15.63;;;3.60;;
18947;SDS011;9607;51.600;7.558;2023-01-13T15:08:25;12.52;;;3.13;;
18947;SDS011;9607;51.600;7.558;2023-01-13T15:11:17;9.80;;;3.78;;
18947;SDS011;9607;51.600;7.558;2023-01-13T15:13:53;15.48;;;4.75;;
18947;SDS011;9607;51.600;7.558;2023-01-13T15:16:25;19.80;;;4.82;;
18947;SDS011;9607;51.600;7.558;2023-01-13T15:18:55;15.90;;;4.63;;
18947;SDS011;9607;51.600;7.558;2023-01-13T15:21:23;13.27;;;3.40;;
18947;SDS011;9607;51.600;7.558;2023-01-13T15:23:50;11.75;;;4.22;;
18947;SDS011;9607;51.600;7.558;2023-01-13T15:26:21;10.85;;;3.72;;
18947;SDS011;9607;51.600;7.558;2023-01-13T15:28:49;12.68;;;3.63;;
18947;SDS011;9607;51.600;7.558;2023-01-13T15:31:18;16.63;;;5.45;;
18947;SDS011;9607;51.600;7.558;2023-01-13T15:33:47;15.15;;;5.30;;
18947;SDS011;9607;51.600;7.558;2023-01-13T15:36:26;15.77;;;5.00;;
18947;SDS011;9607;51.600;7.558;2023-01-13T15:38:54;21.65;;;5.70;;
18947;SDS011;9607;51.600;7.558;2023-01-13T15:41:21;21.83;;;6.10;;
18947;SDS011;9607;51.600;7.558;2023-01-13T15:44:08;21.73;;;5.43;;
18947;SDS011;9607;51.600;7.558;2023-01-13T15:46:54;14.50;;;4.28;;
18947;SDS011;9607;51.600;7.558;2023-01-13T15:49:22;15.10;;;5.18;;
18947;SDS011;9607;51.600;7.558;2023-01-13T15:51:53;20.40;;;5.28;;
18947;SDS011;9607;51.600;7.558;2023-01-13T15:54:20;18.15;;;5.30;;